Auburn, Massachusetts
Current Conditions -  °F | °C
As of 8:18 PM on Tuesday 27 Jan 2015 (Local Time) from KORH Reporting Station
Light Snow Light Snow  
Wind Chill: -8°   Ceiling: 4000
Heat Index: 10°   Visibility: 5mi
Dew Point:   Wind: 18mph
Humidity: 76%   Direction: 320°NW
Pressure: 29.57"   Gusts: 28mph
Location:  42.18°N, 71.85°W
Report Text: KORH 280118Z 32016G24KT 5SM -SN OVC040 M12/M16 A2957 RMK AO2 PK WND 32028/0055 P0000 T11221156 $
Loading
Personal Weather Stations






























Interactive Weather Map New forecast layout! Learn more

10-Day Weather Forecast

Advertisements
Track Severe Weather on mobile